Saint Stephens, Wyoming
Current Conditions -  °F | °C
As of 11:53 AM on Sunday 21 Dec 2014 (Local Time) from KRIW Reporting Station
Clear Clear  
Wind Chill: 19°   Ceiling: Unl
Heat Index: 26°   Visibility: 10mi
Dew Point: 21°   Wind: 6mph
Humidity: 81%   Direction: 70°ENE
Pressure: 29.56"   Gusts: NA
Location:  42.98°N, 108.42°W
Report Text: KRIW 211853Z AUTO 07005KT 10SM CLR M03/M06 A2956 RMK AO2 SLP053 T10331061
Loading
Personal Weather Stations






























Interactive Weather Map New forecast layout! Learn more

10-Day Weather Forecast

Advertisements
Track Severe Weather on mobile